Somerset, Maryland
Current Conditions -  °F | °C
As of 2:30 PM on Thursday 18 Dec 2014 (Local Time) from KCGS Reporting Station
Broken Clouds Broken Clouds  
Wind Chill: 34°   Ceiling: 3900
Heat Index: 39°   Visibility: 10mi
Dew Point: 23°   Wind: 8mph
Humidity: 52%   Direction: 310°NW
Pressure: 30.09"   Gusts: 18mph
Location:  38.9825°N, 77.0796°W
Report Text: KCGS 181930Z AUTO 31007G16KT 10SM BKN039 04/M05 A3009 RMK AO1
Loading
Personal Weather Stations






























Interactive Weather Map New forecast layout! Learn more

10-Day Weather Forecast

Advertisements
Track Severe Weather on mobile